Time;durP1;ratioP1;P1;durP2;ratioP2;P2;SDS_P1;SDS_P2;PMS_P1;PMS_P2;Temp;Humidity;BMP_temperature;BMP_pressure;BME280_temperature;BME280_humidity;BME280_pressure;Samples;Min_cycle;Max_cycle;Signal;HPM_P1;HPM_P2
2022/01/24 00:00:23;;;;;;;16.63;6.43;;;-4.40;99.90;;;;;;5052386;28;20083;-74
2022/01/24 00:02:49;;;;;;;9.82;5.30;;;-4.50;99.90;;;;;;5068473;28;20033;-75
2022/01/24 00:05:17;;;;;;;11.85;5.88;;;-4.70;99.90;;;;;;5060439;28;20032;-74
2022/01/24 00:07:43;;;;;;;12.43;6.28;;;-4.80;99.90;;;;;;5088636;28;20135;-75
2022/01/24 00:10:14;;;;;;;13.50;7.05;;;-4.70;99.90;;;;;;5073279;28;20679;-74
2022/01/24 00:18:24;;;;;;;14.82;6.20;;;-4.80;99.90;;;;;;5053073;28;20079;-74
2022/01/24 00:29:03;;;;;;;12.45;5.93;;;-5.00;99.90;;;;;;5053294;28;20044;-74
2022/01/24 00:31:29;;;;;;;14.40;6.18;;;-5.10;99.90;;;;;;5051575;28;20037;-73
2022/01/24 00:33:54;;;;;;;16.87;6.10;;;-5.10;99.90;;;;;;5068141;28;20128;-74
2022/01/24 00:36:20;;;;;;;14.37;6.40;;;-5.10;99.90;;;;;;5068233;28;20290;-74
2022/01/24 00:38:46;;;;;;;13.30;6.03;;;-5.30;99.90;;;;;;5052882;28;20775;-74
2022/01/24 00:41:15;;;;;;;10.20;5.78;;;-5.30;99.90;;;;;;5052350;28;20025;-74
2022/01/24 00:46:30;;;;;;;14.38;6.80;;;-5.30;99.90;;;;;;5052518;28;20024;-73
2022/01/24 00:57:03;;;;;;;10.68;5.72;;;-5.70;99.90;;;;;;5052600;28;20439;-74
2022/01/24 00:59:29;;;;;;;16.15;7.10;;;-5.70;99.90;;;;;;5052873;28;20480;-73
2022/01/24 01:01:56;;;;;;;15.05;6.30;;;-5.80;99.90;;;;;;5051972;28;20104;-73
2022/01/24 01:04:27;;;;;;;;;;;-5.80;99.90;;;;;;5052369;28;20480;-73
2022/01/24 01:06:54;;;;;;;15.25;5.90;;;-5.90;99.90;;;;;;5050581;28;20336;-75
2022/01/24 01:20:34;;;;;;;15.38;7.20;;;-6.00;99.90;;;;;;5047781;28;20056;-75
2022/01/24 01:23:00;;;;;;;12.77;6.82;;;-6.20;99.90;;;;;;5053410;28;20029;-73
2022/01/24 01:25:26;;;;;;;15.88;6.88;;;-6.20;99.90;;;;;;5052321;28;20043;-73
2022/01/24 01:27:53;;;;;;;12.52;5.65;;;-6.30;99.90;;;;;;5051577;28;20032;-74
2022/01/24 01:30:24;;;;;;;14.85;6.80;;;-6.30;99.90;;;;;;5051897;28;20021;-75
2022/01/24 01:33:04;;;;;;;17.85;7.50;;;-6.30;99.90;;;;;;5076523;28;20036;-74
2022/01/24 01:56:45;;;;;;;;;;;-6.50;99.90;;;;;;5052482;28;20066;-73
2022/01/24 01:59:10;;;;;;;11.88;5.88;;;-6.50;99.90;;;;;;5060973;28;19916;-73
2022/01/24 02:01:36;;;;;;;15.02;6.90;;;-6.40;99.90;;;;;;5071664;28;20013;-74
2022/01/24 02:04:02;;;;;;;14.27;6.72;;;-6.70;99.90;;;;;;5071560;28;20036;-74
2022/01/24 02:06:28;;;;;;;16.30;6.13;;;-6.70;99.90;;;;;;5085938;28;20024;-74
2022/01/24 02:09:08;;;;;;;13.68;6.35;;;-6.60;99.90;;;;;;5069736;28;20436;-74
2022/01/24 02:11:33;;;;;;;14.65;6.40;;;-6.70;99.90;;;;;;5050136;28;20024;-72
2022/01/24 02:14:04;;;;;;;13.55;5.97;;;-6.70;99.90;;;;;;5066721;28;20048;-74
2022/01/24 02:16:46;;;;;;;17.63;5.90;;;-6.80;99.90;;;;;;5070670;28;20024;-74
2022/01/24 02:19:34;;;;;;;12.45;5.95;;;-6.80;99.90;;;;;;5071226;28;20416;-74
2022/01/24 02:24:52;;;;;;;13.70;5.65;;;-6.90;99.90;;;;;;5071482;28;20051;-73
2022/01/24 02:27:19;;;;;;;12.20;5.82;;;-6.90;99.90;;;;;;5051145;28;20082;-73
2022/01/24 02:32:20;;;;;;;13.32;5.88;;;-6.90;99.90;;;;;;5051258;28;20021;-74
2022/01/24 02:34:48;;;;;;;13.07;6.50;;;-7.00;99.90;;;;;;5051156;28;20051;-74
2022/01/24 02:37:18;;;;;;;13.32;6.50;;;-6.90;99.90;;;;;;5051041;28;20029;-74
2022/01/24 02:52:57;;;;;;;13.60;6.93;;;-8.00;99.90;;;;;;5059948;28;20036;-74
2022/01/24 02:55:23;;;;;;;14.00;6.53;;;-6.90;99.90;;;;;;5086565;28;20024;-74
2022/01/24 02:57:49;;;;;;;16.08;6.15;;;-7.00;99.90;;;;;;5070654;28;20024;-74
2022/01/24 03:00:15;;;;;;;15.82;5.97;;;-7.00;99.90;;;;;;5086437;28;20038;-74
2022/01/24 03:02:41;;;;;;;;;;;-7.10;99.90;;;;;;5053654;28;20033;-73
2022/01/24 03:05:07;;;;;;;13.90;6.63;;;-7.20;99.90;;;;;;5050836;28;19936;-74
2022/01/24 03:07:33;;;;;;;12.75;5.85;;;-7.20;99.90;;;;;;5050659;28;20029;-73
2022/01/24 03:10:02;;;;;;;14.05;6.80;;;-7.30;99.90;;;;;;5050890;28;20051;-73
2022/01/24 03:12:43;;;;;;;15.60;6.95;;;-7.30;99.90;;;;;;5050494;28;20033;-73
2022/01/24 03:15:10;;;;;;;13.02;5.97;;;-7.20;99.90;;;;;;5050604;28;20484;-74
2022/01/24 03:17:36;;;;;;;13.02;5.95;;;-7.30;99.90;;;;;;5051915;28;20477;-74
2022/01/24 03:20:04;;;;;;;16.23;6.40;;;-7.20;99.90;;;;;;5054710;28;20365;-74
2022/01/24 03:22:31;;;;;;;18.38;7.60;;;-7.20;99.90;;;;;;5069362;28;20021;-74
2022/01/24 03:24:57;;;;;;;;;;;-7.00;99.90;;;;;;5053891;28;20060;-73
2022/01/24 03:27:22;;;;;;;13.45;5.10;;;-7.20;99.90;;;;;;5052854;28;19905;-73
2022/01/24 03:29:48;;;;;;;14.30;5.75;;;-7.20;99.90;;;;;;5054363;28;20395;-74
2022/01/24 03:32:14;;;;;;;17.20;6.80;;;-7.10;99.90;;;;;;5052709;28;20128;-74
2022/01/24 03:34:40;;;;;;;14.00;5.55;;;-7.10;99.90;;;;;;5052919;28;20123;-73
2022/01/24 03:37:06;;;;;;;;;;;-7.10;99.90;;;;;;5058838;28;20031;-74
2022/01/24 03:39:33;;;;;;;12.38;5.28;;;-7.00;99.90;;;;;;5072577;28;20008;-73
2022/01/24 03:41:59;;;;;;;;;;;-7.00;99.90;;;;;;5074566;28;20025;-73
2022/01/24 03:44:26;;;;;;;15.85;6.68;;;-7.00;99.90;;;;;;5074271;28;19916;-73
2022/01/24 03:52:09;;;;;;;16.80;7.82;;;-6.90;99.90;;;;;;5074111;28;20207;-73
2022/01/24 03:54:36;;;;;;;14.50;6.82;;;-6.90;99.90;;;;;;5088668;28;20112;-74
2022/01/24 03:57:03;;;;;;;16.23;7.15;;;-7.00;99.90;;;;;;5074080;28;20115;-74
2022/01/24 03:59:30;;;;;;;18.33;6.88;;;-7.00;99.90;;;;;;5089671;28;20059;-74
2022/01/24 04:01:58;;;;;;;16.83;6.75;;;-6.70;99.90;;;;;;5074075;28;20027;-72
2022/01/24 04:04:24;;;;;;;17.23;7.22;;;-7.00;99.90;;;;;;5064817;28;20033;-73
2022/01/24 04:06:50;;;;;;;16.80;6.57;;;-7.00;99.90;;;;;;5069219;28;20025;-72
2022/01/24 04:09:15;;;;;;;16.77;6.57;;;-7.00;99.90;;;;;;5052596;28;20049;-74
2022/01/24 04:11:41;;;;;;;17.77;7.07;;;-7.00;99.90;;;;;;5053663;28;20053;-74
2022/01/24 04:14:25;;;;;;;16.13;7.03;;;-7.00;99.90;;;;;;5053612;28;20476;-74
2022/01/24 04:17:20;;;;;;;13.40;6.35;;;-6.90;99.90;;;;;;5058121;28;20038;-75
2022/01/24 04:22:38;;;;;;;18.23;8.40;;;-6.90;99.90;;;;;;5066591;28;20021;-73
2022/01/24 04:25:05;;;;;;;18.50;8.90;;;-6.90;99.90;;;;;;5053913;28;20424;-74
2022/01/24 04:27:32;;;;;;;17.55;8.20;;;-6.90;99.90;;;;;;5068691;28;20052;-73
2022/01/24 04:29:58;;;;;;;19.00;8.55;;;-6.90;99.90;;;;;;5052636;28;20041;-74
2022/01/24 04:32:23;;;;;;;21.50;7.60;;;-6.90;99.90;;;;;;5052783;28;20041;-75
2022/01/24 04:34:50;;;;;;;21.60;7.63;;;-6.90;99.90;;;;;;5053497;28;20025;-73
2022/01/24 04:37:16;;;;;;;20.65;8.38;;;-6.90;99.90;;;;;;5053107;28;20419;-73
2022/01/24 04:39:43;;;;;;;;;;;-6.80;99.90;;;;;;5052196;28;20032;-73
2022/01/24 04:42:16;;;;;;;19.23;7.18;;;-6.80;99.90;;;;;;5051800;28;19915;-73
2022/01/24 04:45:11;;;;;;;17.30;7.28;;;-6.80;99.90;;;;;;5068579;28;20392;-73
2022/01/24 04:50:45;;;;;;;22.00;9.10;;;-6.80;99.90;;;;;;5056196;28;20094;-73
2022/01/24 04:55:55;;;;;;;19.40;7.47;;;-6.70;99.90;;;;;;5072861;28;20031;-74
2022/01/24 04:58:21;;;;;;;15.80;6.80;;;-6.70;99.90;;;;;;5072854;28;20111;-73
2022/01/24 05:00:47;;;;;;;19.52;7.68;;;-6.70;99.90;;;;;;5053546;28;20087;-73
2022/01/24 05:03:12;;;;;;;18.05;7.43;;;-6.70;99.90;;;;;;5052275;28;20520;-73
2022/01/24 05:05:38;;;;;;;16.02;6.90;;;-6.70;99.90;;;;;;5052491;28;20037;-74
2022/01/24 05:08:06;;;;;;;14.18;6.65;;;-6.70;99.90;;;;;;5067485;28;20388;-74
2022/01/24 05:10:38;;;;;;;13.70;6.75;;;-6.70;99.90;;;;;;5052350;28;20029;-73
2022/01/24 05:21:57;;;;;;;12.65;5.75;;;-6.90;99.90;;;;;;5072557;28;20074;-74
2022/01/24 05:24:17;;;;;;;12.20;5.32;;;-7.00;99.90;;;;;;5072450;28;20573;-73
2022/01/24 05:26:43;;;;;;;14.65;6.18;;;-7.00;99.90;;;;;;5071037;28;20025;-73
2022/01/24 05:29:09;;;;;;;12.23;5.72;;;-7.10;99.90;;;;;;5070538;28;20088;-74
2022/01/24 05:31:34;;;;;;;13.82;5.88;;;-7.10;99.90;;;;;;5071707;28;20028;-74
2022/01/24 05:34:00;;;;;;;16.33;6.70;;;-7.10;99.90;;;;;;5071945;28;20033;-74
2022/01/24 05:36:26;;;;;;;16.50;6.78;;;-7.10;99.90;;;;;;5062809;28;20040;-74
2022/01/24 05:38:52;;;;;;;12.68;5.50;;;-7.10;99.90;;;;;;5052007;28;20521;-74
2022/01/24 05:41:17;;;;;;;14.50;5.93;;;-7.10;99.90;;;;;;5051748;28;20473;-74
2022/01/24 05:43:43;;;;;;;12.55;5.75;;;-7.10;99.90;;;;;;5051469;28;20047;-73
2022/01/24 05:46:09;;;;;;;14.45;5.68;;;-7.10;99.90;;;;;;5051609;28;20037;-73
2022/01/24 05:48:35;;;;;;;11.75;5.22;;;-7.20;99.90;;;;;;5049576;28;20076;-73
2022/01/24 05:51:01;;;;;;;12.35;5.20;;;-7.10;99.90;;;;;;5051649;28;20091;-73
2022/01/24 05:53:27;;;;;;;11.82;5.18;;;-7.10;99.90;;;;;;5066735;28;20111;-75
2022/01/24 05:55:54;;;;;;;14.10;5.63;;;-7.10;99.90;;;;;;5051414;28;20191;-73
2022/01/24 05:58:20;;;;;;;17.10;6.30;;;-6.70;99.90;;;;;;5066680;28;20041;-73
2022/01/24 06:00:46;;;;;;;12.35;5.88;;;-7.10;99.90;;;;;;5051625;28;20369;-74
2022/01/24 06:03:12;;;;;;;10.43;5.65;;;-7.10;99.90;;;;;;5051003;28;20053;-74
2022/01/24 06:05:38;;;;;;;14.68;6.30;;;-5.60;99.90;;;;;;5051021;28;20032;-73
2022/01/24 06:08:04;;;;;;;11.70;5.45;;;-7.00;99.90;;;;;;5050564;28;20393;-73
2022/01/24 06:10:30;;;;;;;12.77;5.25;;;-7.00;99.90;;;;;;5050872;28;20481;-75
2022/01/24 06:12:56;;;;;;;13.50;5.40;;;-7.00;99.90;;;;;;5050652;28;20025;-74
2022/01/24 06:15:21;;;;;;;12.45;5.78;;;-6.90;99.90;;;;;;5051275;28;20445;-74
2022/01/24 06:17:47;;;;;;;13.52;5.90;;;-6.90;99.90;;;;;;5051385;28;20172;-73
2022/01/24 06:20:13;;;;;;;15.30;6.05;;;-6.80;99.90;;;;;;5051374;28;20027;-74
2022/01/24 06:22:40;;;;;;;12.65;5.85;;;-6.90;99.90;;;;;;5050259;28;20033;-74
2022/01/24 06:25:07;;;;;;;11.85;4.97;;;-6.90;99.90;;;;;;5066005;28;20025;-73
2022/01/24 06:27:33;;;;;;;12.65;6.30;;;-6.80;99.90;;;;;;5050917;28;20477;-75
2022/01/24 06:29:59;;;;;;;12.88;6.15;;;-6.70;99.90;;;;;;5051111;28;20033;-74
2022/01/24 06:32:24;;;;;;;12.10;6.05;;;-6.70;99.90;;;;;;5058714;28;20033;-64
2022/01/24 06:34:50;;;;;;;14.63;4.70;;;-6.70;99.90;;;;;;5069338;28;20115;-64
2022/01/24 06:37:16;;;;;;;19.65;7.13;;;-5.10;99.90;;;;;;5069316;28;20025;-66
2022/01/24 06:39:41;;;;;;;17.98;7.60;;;-4.30;99.90;;;;;;5068793;28;20031;-66
2022/01/24 06:42:22;;;;;;;11.02;5.07;;;-4.30;99.90;;;;;;5066244;28;20044;-67
2022/01/24 06:44:48;;;;;;;15.73;5.82;;;-4.70;99.90;;;;;;5066831;28;20162;-66
2022/01/24 06:47:14;;;;;;;13.00;5.05;;;-5.20;99.90;;;;;;5068067;28;20609;-66
2022/01/24 06:49:40;;;;;;;12.97;5.87;;;-5.60;99.90;;;;;;5066323;28;20052;-68
2022/01/24 06:52:06;;;;;;;16.63;6.55;;;-5.80;99.90;;;;;;5068303;28;20285;-66
2022/01/24 06:54:33;;;;;;;;;;;-5.10;99.90;;;;;;5059653;28;20170;-65
2022/01/24 06:56:59;;;;;;;10.27;5.32;;;-6.00;99.90;;;;;;5068244;28;20386;-67
2022/01/24 06:59:25;;;;;;;11.18;5.32;;;-6.00;99.90;;;;;;5063481;28;20107;-67
2022/01/24 07:01:51;;;;;;;9.85;4.20;;;-5.60;99.90;;;;;;5070606;28;20029;-68
2022/01/24 07:04:16;;;;;;;13.93;5.75;;;-5.90;99.90;;;;;;5068203;28;20036;-67
2022/01/24 07:06:42;;;;;;;14.65;6.85;;;-5.90;99.90;;;;;;5072095;28;20028;-66
2022/01/24 07:09:09;;;;;;;15.38;8.57;;;-5.90;99.90;;;;;;5071511;28;20082;-64
2022/01/24 07:11:35;;;;;;;16.15;7.43;;;-5.90;99.90;;;;;;5071701;28;20032;-66
2022/01/24 07:14:05;;;;;;;11.35;5.72;;;-5.80;99.90;;;;;;5071071;28;20503;-65
2022/01/24 07:16:48;;;;;;;12.43;5.55;;;-5.70;99.90;;;;;;5071293;28;20029;-69
2022/01/24 07:19:14;;;;;;;11.15;5.60;;;-5.40;99.90;;;;;;5072479;28;20036;-66
2022/01/24 07:21:40;;;;;;;13.30;6.28;;;-5.60;99.90;;;;;;5067621;28;20392;-66
2022/01/24 07:24:06;;;;;;;10.07;4.80;;;-5.60;99.90;;;;;;5069119;28;20044;-68
2022/01/24 07:26:31;;;;;;;10.85;5.43;;;-5.50;99.90;;;;;;5064555;28;20024;-66
2022/01/24 07:28:57;;;;;;;13.57;6.07;;;-5.50;99.90;;;;;;5069041;28;20062;-68
2022/01/24 07:31:23;;;;;;;12.27;5.95;;;-5.40;99.90;;;;;;5068849;28;20039;-71
2022/01/24 07:33:49;;;;;;;13.10;5.72;;;-5.40;99.90;;;;;;5067133;28;20131;-67
2022/01/24 07:36:15;;;;;;;;;;;-5.40;99.90;;;;;;5080353;28;20024;-68
2022/01/24 07:38:41;;;;;;;10.05;5.00;;;-5.40;99.90;;;;;;5074287;28;19954;-67
2022/01/24 07:41:07;;;;;;;14.00;4.78;;;-5.40;99.90;;;;;;5074315;28;20032;-67
2022/01/24 07:43:33;;;;;;;14.73;5.60;;;-5.40;99.90;;;;;;5070355;28;20155;-66
2022/01/24 07:45:59;;;;;;;10.45;5.03;;;-5.40;99.90;;;;;;5070780;28;20036;-67
2022/01/24 07:48:25;;;;;;;10.05;5.72;;;-5.30;99.90;;;;;;5066573;28;20553;-68
2022/01/24 07:50:52;;;;;;;11.15;5.53;;;-5.30;99.90;;;;;;5068104;28;20086;-66
2022/01/24 07:53:19;;;;;;;12.00;5.72;;;-5.30;99.90;;;;;;5071876;28;20048;-66
2022/01/24 07:55:47;;;;;;;16.05;7.70;;;-5.10;99.90;;;;;;5072522;28;20056;-66
2022/01/24 07:58:12;;;;;;;12.13;5.90;;;-5.10;99.90;;;;;;5064046;28;20075;-66
2022/01/24 08:00:39;;;;;;;7.38;4.38;;;-5.00;99.90;;;;;;5058574;28;20488;-66
2022/01/24 08:03:06;;;;;;;10.50;5.32;;;-4.90;99.90;;;;;;5071248;28;20047;-69
2022/01/24 08:05:33;;;;;;;13.38;5.35;;;-4.90;99.90;;;;;;5070275;28;20416;-66
2022/01/24 08:07:59;;;;;;;10.57;5.05;;;-4.90;99.90;;;;;;5069072;28;20135;-67
2022/01/24 08:10:25;;;;;;;13.68;6.43;;;-4.90;99.90;;;;;;5067917;28;20056;-68
2022/01/24 08:12:51;;;;;;;17.05;6.95;;;-4.80;99.90;;;;;;5061419;28;20555;-66
2022/01/24 08:15:17;;;;;;;12.50;5.72;;;-4.80;99.90;;;;;;5065241;28;20388;-66
2022/01/24 08:17:43;;;;;;;22.67;10.00;;;-4.80;99.90;;;;;;5065221;28;20108;-66
2022/01/24 08:20:11;;;;;;;15.65;8.13;;;-4.70;99.90;;;;;;5065501;28;20024;-67
2022/01/24 08:22:37;;;;;;;14.95;6.75;;;-4.60;99.90;;;;;;5063733;28;20041;-67
2022/01/24 08:25:04;;;;;;;13.40;6.07;;;-4.50;99.90;;;;;;5066568;28;20218;-67
2022/01/24 08:27:32;;;;;;;15.65;6.07;;;-4.50;99.90;;;;;;5063701;28;20085;-67
2022/01/24 08:29:57;;;;;;;15.38;6.05;;;-4.50;99.90;;;;;;5061765;28;20139;-65
2022/01/24 08:32:23;;;;;;;25.92;11.05;;;-4.40;99.90;;;;;;5062724;28;20515;-65
2022/01/24 08:34:49;;;;;;;19.50;8.02;;;-4.30;99.90;;;;;;5066285;28;20360;-67
2022/01/24 08:37:15;;;;;;;13.98;6.97;;;-4.30;99.90;;;;;;5074919;28;20059;-66
2022/01/24 08:39:42;;;;;;;15.63;6.50;;;-4.40;99.90;;;;;;5064272;28;20032;-66
2022/01/24 08:42:30;;;;;;;15.07;6.35;;;-4.40;99.90;;;;;;5064330;28;20436;-67
2022/01/24 08:47:23;;;;;;;11.73;5.35;;;-4.30;99.90;;;;;;5071057;28;19916;-68
2022/01/24 08:49:50;;;;;;;15.40;6.35;;;-4.30;99.90;;;;;;5067980;28;20075;-66
2022/01/24 08:52:16;;;;;;;13.25;6.13;;;-4.30;99.90;;;;;;5072136;28;20055;-68
2022/01/24 08:54:41;;;;;;;17.90;6.70;;;-4.30;99.90;;;;;;5064306;28;20068;-66
2022/01/24 08:57:08;;;;;;;16.42;6.68;;;-4.40;99.90;;;;;;5070693;28;20032;-65
2022/01/24 08:59:34;;;;;;;15.00;7.38;;;-4.30;99.90;;;;;;5051520;28;20043;-68
2022/01/24 09:02:00;;;;;;;14.32;6.65;;;-4.20;99.90;;;;;;5056105;28;20119;-68
2022/01/24 09:04:26;;;;;;;12.57;6.32;;;-4.20;99.90;;;;;;5065112;28;20123;-69
2022/01/24 09:06:52;;;;;;;15.27;7.75;;;-4.20;99.90;;;;;;5066457;28;20162;-67
2022/01/24 09:09:19;;;;;;;17.98;8.30;;;-4.20;99.90;;;;;;5066973;28;20056;-67
2022/01/24 09:11:46;;;;;;;15.85;8.00;;;-4.20;99.90;;;;;;5068147;28;20032;-66
2022/01/24 09:14:12;;;;;;;;;;;-4.10;99.90;;;;;;5063508;28;20025;-67
2022/01/24 09:16:38;;;;;;;14.68;6.35;;;-4.10;99.90;;;;;;5061993;28;20703;-67
2022/01/24 09:19:06;;;;;;;13.35;6.20;;;-4.00;99.90;;;;;;5060090;28;20052;-69
2022/01/24 09:21:34;;;;;;;15.70;6.32;;;-4.00;99.90;;;;;;5065611;28;20021;-65
2022/01/24 09:24:00;;;;;;;16.77;7.00;;;-4.00;99.90;;;;;;5062442;28;20036;-68
2022/01/24 09:26:26;;;;;;;;;;;-4.00;99.90;;;;;;5067133;28;20460;-67
2022/01/24 09:28:53;;;;;;;17.55;7.28;;;-4.00;99.90;;;;;;5062748;28;19916;-69
2022/01/24 09:31:18;;;;;;;14.50;6.88;;;-4.00;99.90;;;;;;5059399;28;20033;-67
2022/01/24 09:33:44;;;;;;;18.67;7.68;;;-4.00;99.90;;;;;;5060818;28;20036;-69
2022/01/24 09:36:10;;;;;;;17.58;7.90;;;-4.00;99.90;;;;;;5060917;28;20028;-70
2022/01/24 09:38:36;;;;;;;14.35;6.65;;;-4.10;99.90;;;;;;5062404;28;20033;-67
2022/01/24 09:41:06;;;;;;;14.68;6.25;;;-4.10;99.90;;;;;;5060477;28;20025;-68
2022/01/24 09:43:32;;;;;;;12.70;6.10;;;-4.10;99.90;;;;;;5067992;28;20028;-68
2022/01/24 09:45:58;;;;;;;15.38;6.90;;;-4.10;99.90;;;;;;5061285;28;20039;-66
2022/01/24 09:48:25;;;;;;;12.60;6.88;;;-4.00;99.90;;;;;;5063905;28;20037;-68
2022/01/24 09:50:53;;;;;;;16.05;8.18;;;-4.00;99.90;;;;;;5058230;28;20041;-67
2022/01/24 09:53:23;;;;;;;16.77;7.43;;;-3.90;99.90;;;;;;5058336;28;20710;-68
2022/01/24 09:55:52;;;;;;;14.60;7.65;;;-3.80;99.90;;;;;;5063013;28;20547;-68
2022/01/24 09:58:19;;;;;;;14.57;7.18;;;-3.80;99.90;;;;;;5057972;28;20320;-68
2022/01/24 10:00:45;;;;;;;17.13;7.97;;;-3.80;99.90;;;;;;5064305;28;20193;-69
2022/01/24 10:03:12;;;;;;;16.45;6.90;;;-3.80;99.90;;;;;;5061266;28;20032;-67
2022/01/24 10:05:42;;;;;;;16.73;7.45;;;-3.80;99.90;;;;;;5063122;28;20041;-69
2022/01/24 10:08:14;;;;;;;16.83;7.88;;;-3.80;99.90;;;;;;5056593;28;20037;-68
2022/01/24 10:10:55;;;;;;;17.30;7.38;;;-3.90;99.90;;;;;;5055579;28;20047;-66
2022/01/24 10:16:33;;;;;;;17.67;7.35;;;-3.80;99.90;;;;;;5061452;28;20382;-67
2022/01/24 10:18:58;;;;;;;16.25;6.93;;;-3.80;99.90;;;;;;5057685;28;20357;-68
2022/01/24 10:21:24;;;;;;;18.20;7.80;;;-3.80;99.90;;;;;;5058985;28;20092;-68
2022/01/24 10:23:50;;;;;;;14.65;7.18;;;-3.80;99.90;;;;;;5060978;28;20628;-66
2022/01/24 10:26:15;;;;;;;15.33;7.20;;;-3.80;99.90;;;;;;5056360;28;20037;-69
2022/01/24 10:28:44;;;;;;;16.60;7.30;;;-3.70;99.90;;;;;;5054455;28;20676;-68
2022/01/24 10:31:24;;;;;;;15.40;7.35;;;-3.60;99.90;;;;;;5053067;28;20277;-67
2022/01/24 10:34:02;;;;;;;14.68;7.60;;;-3.50;99.90;;;;;;5069362;28;20034;-72
2022/01/24 10:36:35;;;;;;;21.42;9.00;;;-3.60;99.90;;;;;;5051027;28;20512;-64
2022/01/24 10:39:42;;;;;;;25.10;10.75;;;-3.50;99.90;;;;;;5059384;28;20032;-68
2022/01/24 10:45:21;;;;;;;18.75;8.25;;;-3.30;99.90;;;;;;5060889;28;20047;-71
2022/01/24 10:47:50;;;;;;;16.88;7.80;;;-3.30;99.90;;;;;;5062121;28;20064;-68
2022/01/24 10:50:28;;;;;;;17.50;7.38;;;-3.30;99.90;;;;;;5060307;28;20047;-67
2022/01/24 10:52:55;;;;;;;18.48;7.20;;;-3.30;99.90;;;;;;5060434;28;20055;-66
2022/01/24 10:55:24;;;;;;;15.10;7.63;;;-3.50;99.90;;;;;;5058593;28;20033;-66
2022/01/24 10:58:16;;;;;;;16.20;7.85;;;-3.40;99.90;;;;;;5063235;28;20555;-65
2022/01/24 11:00:43;;;;;;;14.48;6.80;;;-3.20;99.90;;;;;;5065676;28;20248;-67
2022/01/24 11:03:18;;;;;;;19.33;8.32;;;-3.10;99.90;;;;;;5056206;28;20059;-67
2022/01/24 11:05:44;;;;;;;22.17;10.27;;;-3.00;99.90;;;;;;5061763;28;20044;-68
2022/01/24 11:08:15;;;;;;;15.00;7.68;;;-2.90;99.90;;;;;;5060229;28;20437;-66
2022/01/24 11:10:48;;;;;;;16.30;7.38;;;-2.90;99.90;;;;;;5061674;28;20464;-66
2022/01/24 11:13:18;;;;;;;14.77;6.00;;;-3.00;99.90;;;;;;5060137;28;20508;-67
2022/01/24 11:15:54;;;;;;;15.85;6.97;;;-3.10;99.90;;;;;;5059483;28;20020;-67
2022/01/24 11:18:24;;;;;;;17.85;7.65;;;-3.10;99.90;;;;;;5058451;28;20029;-68
2022/01/24 11:21:01;;;;;;;17.98;6.90;;;-3.00;99.90;;;;;;5072339;28;20477;-67
2022/01/24 11:23:28;;;;;;;15.20;6.65;;;-2.80;99.90;;;;;;5073956;28;20037;-69
2022/01/24 11:25:59;;;;;;;13.10;6.28;;;-2.60;99.90;;;;;;5057194;28;20476;-67
2022/01/24 11:28:25;;;;;;;17.48;7.53;;;-2.40;99.90;;;;;;5070699;28;20063;-67
2022/01/24 11:31:00;;;;;;;16.55;7.50;;;-2.10;99.90;;;;;;5074195;28;20029;-68
2022/01/24 11:33:41;;;;;;;16.67;6.80;;;-2.00;99.90;;;;;;5057738;28;20037;-66
2022/01/24 11:36:08;;;;;;;16.70;7.38;;;-2.10;99.90;;;;;;5058745;28;20031;-67
2022/01/24 11:38:42;;;;;;;15.15;6.88;;;-2.00;99.90;;;;;;5059793;28;20047;-67
2022/01/24 11:41:32;;;;;;;14.38;6.95;;;-1.70;99.90;;;;;;5058326;28;20036;-67
2022/01/24 11:44:08;;;;;;;14.60;7.07;;;-1.50;99.90;;;;;;5063608;28;20093;-67
2022/01/24 11:46:52;;;;;;;14.43;6.53;;;-1.40;99.90;;;;;;5062418;28;20040;-68
2022/01/24 11:49:25;;;;;;;18.23;6.53;;;-1.10;99.90;;;;;;5059337;28;20053;-66
2022/01/24 11:52:14;;;;;;;14.23;5.68;;;-0.90;99.90;;;;;;5064567;28;20043;-67
2022/01/24 11:55:01;;;;;;;18.35;8.30;;;-0.70;99.90;;;;;;5059818;28;20029;-66
2022/01/24 11:57:35;;;;;;;9.68;4.55;;;-0.60;99.90;;;;;;5062712;28;20596;-65
2022/01/24 12:00:01;;;;;;;12.50;5.38;;;-0.50;99.90;;;;;;5060312;28;20033;-66
2022/01/24 12:02:30;;;;;;;14.48;5.97;;;-0.40;99.90;;;;;;5061263;28;20017;-66
2022/01/24 12:05:08;;;;;;;13.52;5.65;;;-0.30;99.90;;;;;;5063990;28;20020;-66
2022/01/24 12:07:43;;;;;;;15.07;5.57;;;-0.10;99.90;;;;;;5061317;28;20025;-67
2022/01/24 12:10:34;;;;;;;11.25;5.05;;;-0.20;99.90;;;;;;5062157;28;20150;-67
2022/01/24 12:13:03;;;;;;;12.60;5.80;;;-0.70;99.90;;;;;;5059781;28;20075;-68
2022/01/24 12:15:41;;;;;;;13.32;5.72;;;-1.20;99.90;;;;;;5063260;28;20084;-66
2022/01/24 12:18:08;;;;;;;11.27;5.03;;;-1.50;99.90;;;;;;5064309;28;20447;-67
2022/01/24 12:20:41;;;;;;;10.52;5.18;;;-1.70;99.90;;;;;;5064451;28;20136;-68
2022/01/24 12:23:25;;;;;;;15.07;6.05;;;-1.80;99.90;;;;;;5062773;28;20040;-67
2022/01/24 12:26:05;;;;;;;14.18;5.75;;;-1.90;99.90;;;;;;5060975;28;20490;-68
2022/01/24 12:28:30;;;;;;;19.20;6.05;;;-2.10;99.90;;;;;;5059120;28;20159;-66
2022/01/24 12:30:56;;;;;;;9.80;4.97;;;-2.20;99.90;;;;;;5058941;28;20465;-68
2022/01/24 12:33:41;;;;;;;10.73;5.13;;;-2.30;99.90;;;;;;5067526;28;20062;-70
2022/01/24 12:36:10;;;;;;;12.07;5.30;;;-2.50;99.90;;;;;;5057367;28;20031;-67
2022/01/24 12:38:51;;;;;;;13.68;6.38;;;-2.60;99.90;;;;;;5058881;28;20028;-69
2022/01/24 12:41:27;;;;;;;10.70;6.07;;;-2.60;99.90;;;;;;5059891;28;20531;-70
2022/01/24 12:44:10;;;;;;;12.77;5.43;;;-2.50;99.90;;;;;;5060137;28;20097;-67
2022/01/24 12:46:36;;;;;;;9.60;4.97;;;-2.50;99.90;;;;;;5056079;28;20043;-68
2022/01/24 12:49:05;;;;;;;11.48;5.18;;;-2.40;99.90;;;;;;5057141;28;20053;-67
2022/01/24 12:51:36;;;;;;;13.95;5.72;;;-2.50;99.90;;;;;;5055003;28;20044;-67
2022/01/24 12:54:04;;;;;;;13.07;5.45;;;-2.50;99.90;;;;;;5058966;28;20036;-67
2022/01/24 12:56:33;;;;;;;9.57;5.22;;;-2.40;99.90;;;;;;5063613;28;20051;-67
2022/01/24 12:58:59;;;;;;;12.07;5.00;;;-2.40;99.90;;;;;;5060123;28;20032;-67
2022/01/24 13:01:28;;;;;;;9.85;5.40;;;-2.50;99.90;;;;;;5059543;28;20029;-66
2022/01/24 13:04:02;;;;;;;11.13;5.30;;;-2.40;99.90;;;;;;5061718;28;20040;-67
2022/01/24 13:06:33;;;;;;;11.85;5.18;;;-2.40;99.90;;;;;;5061309;28;20086;-67
2022/01/24 13:09:03;;;;;;;10.20;5.35;;;-1.10;99.90;;;;;;5064694;28;20033;-67
2022/01/24 13:11:30;;;;;;;12.38;5.55;;;-2.50;99.90;;;;;;5059939;28;20249;-66
2022/01/24 13:14:11;;;;;;;12.50;6.13;;;-2.50;99.90;;;;;;5066547;28;20123;-67
2022/01/24 13:22:20;;;;;;;18.15;7.95;;;-2.50;99.90;;;;;;5060556;28;20039;-66
2022/01/24 13:25:09;;;;;;;12.23;5.65;;;-2.60;99.90;;;;;;5060627;28;20040;-66
2022/01/24 13:27:50;;;;;;;11.13;5.07;;;-2.60;99.90;;;;;;5060992;28;20056;-66
2022/01/24 13:30:33;;;;;;;11.63;5.78;;;-2.70;99.90;;;;;;5045156;28;20488;-67
2022/01/24 13:33:05;;;;;;;12.90;5.25;;;-2.80;99.90;;;;;;5059523;28;20044;-66
2022/01/24 13:35:34;;;;;;;15.63;7.03;;;-2.80;99.90;;;;;;5060263;28;20024;-66
2022/01/24 13:38:08;;;;;;;10.57;5.28;;;-2.80;99.90;;;;;;5060258;28;20024;-67
2022/01/24 13:40:55;;;;;;;12.38;5.68;;;-2.90;99.90;;;;;;5060290;28;20045;-67
2022/01/24 13:43:33;;;;;;;11.25;5.72;;;-2.00;99.90;;;;;;5059712;28;20055;-66
2022/01/24 13:46:00;;;;;;;14.20;5.65;;;-2.90;99.90;;;;;;5056473;28;20120;-67
2022/01/24 13:48:27;;;;;;;14.60;6.80;;;-3.00;99.90;;;;;;5062218;28;20052;-69
2022/01/24 13:50:58;;;;;;;27.48;14.02;;;-2.90;99.90;;;;;;5062178;28;20051;-64
2022/01/24 13:53:43;;;;;;;11.43;5.90;;;-2.80;99.90;;;;;;5058983;28;20480;-67
2022/01/24 13:56:48;;;;;;;10.38;5.00;;;-2.70;99.90;;;;;;5067720;28;20036;-66
2022/01/24 13:59:23;;;;;;;10.88;5.25;;;-2.80;99.90;;;;;;5060536;28;20499;-67
2022/01/24 14:01:52;;;;;;;11.27;5.03;;;-2.90;99.90;;;;;;5059440;28;20527;-65
2022/01/24 14:04:34;;;;;;;10.18;4.97;;;-2.90;99.90;;;;;;5060300;28;20056;-67
2022/01/24 14:07:06;;;;;;;9.77;5.10;;;-3.00;99.90;;;;;;5058650;28;20028;-66
2022/01/24 14:09:39;;;;;;;9.10;4.40;;;-3.20;99.90;;;;;;5060460;28;20481;-66
2022/01/24 14:12:08;;;;;;;9.88;5.22;;;-3.20;99.90;;;;;;5063389;28;20040;-65
2022/01/24 14:15:10;;;;;;;11.52;5.43;;;-3.20;99.90;;;;;;5060606;28;20019;-66
2022/01/24 14:20:11;;;;;;;10.23;5.05;;;-3.20;99.90;;;;;;5061407;28;20038;-67
2022/01/24 14:22:41;;;;;;;12.70;5.55;;;-3.20;99.90;;;;;;5074312;28;20064;-66
2022/01/24 14:25:31;;;;;;;12.27;5.20;;;-3.30;99.90;;;;;;5063632;28;20179;-66
2022/01/24 14:28:04;;;;;;;12.75;5.90;;;-3.30;99.90;;;;;;5058373;28;20093;-66
2022/01/24 14:30:38;;;;;;;9.20;4.82;;;-3.50;99.90;;;;;;5056438;28;20024;-67
2022/01/24 14:33:12;;;;;;;131.70;52.95;;;-3.40;99.90;;;;;;5062430;28;20491;-65
2022/01/24 14:36:08;;;;;;;34.85;25.48;;;-3.40;99.90;;;;;;5060859;28;20684;-66
2022/01/24 14:39:11;;;;;;;13.10;5.05;;;-3.30;99.90;;;;;;5064800;28;20488;-66
2022/01/24 14:41:47;;;;;;;9.82;5.15;;;-3.30;99.90;;;;;;5018620;28;20060;-67
2022/01/24 14:47:01;;;;;;;11.67;4.80;;;-3.40;99.90;;;;;;5059800;28;20120;-67
2022/01/24 14:49:30;;;;;;;11.13;4.45;;;-3.40;99.90;;;;;;5074958;28;20412;-66
2022/01/24 14:51:59;;;;;;;12.82;4.72;;;-3.40;99.90;;;;;;5057320;28;20111;-66